More Magic — 2DWJ4 — position and weather

sailwx.info

Track history (hours):
 
Tides and Currents Weather Stations Pressure Air Temp Water Temp Dewpoint Dewpoint Depression Visibility Wind Speed Wind Dir Waves Ship Positions

More Magic

Last reported at 2014-Jul-22 22:32 UTC. Time now 2014-Jul-29 21:03 UTC.
Position N 41°29' W 071°19'.

Length 20 m.

Type: Sailing vessel. MMSI: 235082545.

Date/timePositionNaut miles runAvg speedWind from/ knotsBaromVisibWave heightAir tempDewpointWater temp
2014-Jul-22 22:32N 41°29' W 071°19'3 0.9
2014-Jul-22 19:19N 41°29' W 071°23'0 0.0
2014-Jul-22 18:31N 41°29' W 071°23'1 1.3
2014-Jul-22 17:33N 41°29' W 071°21'0 0.0
2014-Jul-21 18:15N 41°29' W 071°21'2 0.4
2014-Jul-21 14:24N 41°27' W 071°22'  
2014-Jul-19 09:25N 41°26' W 070°55'33 2.1
2014-Jul-18 17:32N 41°12' W 071°35'0 0.0
2014-Jul-18 16:32N 41°12' W 071°35'0 0.0
2014-Jul-18 15:32N 41°12' W 071°35'0 0.0
2014-Jul-18 14:29N 41°12' W 071°35'0 0.0
2014-Jul-18 13:32N 41°12' W 071°35'0 0.0
2014-Jul-18 12:32N 41°12' W 071°35'0 0.0
2014-Jul-18 11:32N 41°12' W 071°35'0 0.0
2014-Jul-18 10:32N 41°12' W 071°35'0 0.0
2014-Jul-18 09:32N 41°12' W 071°35'0 0.0
2014-Jul-18 08:32N 41°12' W 071°35'0 0.0
2014-Jul-18 07:32N 41°12' W 071°35'0 0.0
2014-Jul-18 06:32N 41°12' W 071°35'0 0.0
2014-Jul-18 05:32N 41°12' W 071°35'0 0.0
2014-Jul-18 04:32N 41°12' W 071°35'0 0.0
2014-Jul-18 03:32N 41°12' W 071°35'0 0.0
2014-Jul-18 02:32N 41°12' W 071°35'0 0.0
2014-Jul-18 00:32N 41°12' W 071°35'0 0.0
2014-Jul-17 23:32N 41°12' W 071°35'0 0.0
2014-Jul-17 22:32N 41°12' W 071°35'0 0.0
2014-Jul-17 21:32N 41°12' W 071°35'1 0.5
2014-Jul-17 20:33N 41°12' W 071°35'5 4.6
2014-Jul-17 19:33N 41°16' W 071°33'8 7.5
2014-Jul-17 18:33N 41°18' W 071°23'7 7.0
2014-Jul-17 17:33N 41°25' W 071°22'4 4.1
2014-Jul-17 16:33N 41°29' W 071°19'0 0.0
2014-Jul-17 15:12N 41°29' W 071°19'0 0.0
2014-Jul-17 14:33N 41°29' W 071°19'0 0.0
2014-Jul-17 00:22N 41°29' W 071°19'0 0.0
2014-Jul-16 23:31N 41°29' W 071°19'0 0.1
2014-Jul-16 22:29N 41°29' W 071°19'3 3.1
2014-Jul-16 21:23N 41°27' W 071°16'  
Track history (hours):
 
Tides and Currents Weather Stations Pressure Air Temp Water Temp Dewpoint Dewpoint Depression Visibility Wind Speed Wind Dir Waves Ship Positions

More Magic

Last reported at 2014-Jul-22 22:32 UTC. Time now 2014-Jul-29 21:03 UTC.
Position N 41°29' W 071°19'.

Length 20 m.

Type: Sailing vessel. MMSI: 235082545.

Date/timePositionNaut miles runAvg speedWind from/ knotsBaromVisibWave heightAir tempDewpointWater temp
2014-Jul-22 22:32N 41°29' W 071°19'3 0.9
2014-Jul-22 19:19N 41°29' W 071°23'0 0.0
2014-Jul-22 18:31N 41°29' W 071°23'1 1.3
2014-Jul-22 17:33N 41°29' W 071°21'0 0.0
2014-Jul-21 18:15N 41°29' W 071°21'2 0.4
2014-Jul-21 14:24N 41°27' W 071°22'  
2014-Jul-19 09:25N 41°26' W 070°55'33 2.1
2014-Jul-18 17:32N 41°12' W 071°35'0 0.0
2014-Jul-18 16:32N 41°12' W 071°35'0 0.0
2014-Jul-18 15:32N 41°12' W 071°35'0 0.0
2014-Jul-18 14:29N 41°12' W 071°35'0 0.0
2014-Jul-18 13:32N 41°12' W 071°35'0 0.0
2014-Jul-18 12:32N 41°12' W 071°35'0 0.0
2014-Jul-18 11:32N 41°12' W 071°35'0 0.0
2014-Jul-18 10:32N 41°12' W 071°35'0 0.0
2014-Jul-18 09:32N 41°12' W 071°35'0 0.0
2014-Jul-18 08:32N 41°12' W 071°35'0 0.0
2014-Jul-18 07:32N 41°12' W 071°35'0 0.0
2014-Jul-18 06:32N 41°12' W 071°35'0 0.0
2014-Jul-18 05:32N 41°12' W 071°35'0 0.0
2014-Jul-18 04:32N 41°12' W 071°35'0 0.0
2014-Jul-18 03:32N 41°12' W 071°35'0 0.0
2014-Jul-18 02:32N 41°12' W 071°35'0 0.0
2014-Jul-18 00:32N 41°12' W 071°35'0 0.0
2014-Jul-17 23:32N 41°12' W 071°35'0 0.0
2014-Jul-17 22:32N 41°12' W 071°35'0 0.0
2014-Jul-17 21:32N 41°12' W 071°35'1 0.5
2014-Jul-17 20:33N 41°12' W 071°35'5 4.6
2014-Jul-17 19:33N 41°16' W 071°33'8 7.5
2014-Jul-17 18:33N 41°18' W 071°23'7 7.0
2014-Jul-17 17:33N 41°25' W 071°22'4 4.1
2014-Jul-17 16:33N 41°29' W 071°19'0 0.0
2014-Jul-17 15:12N 41°29' W 071°19'0 0.0
2014-Jul-17 14:33N 41°29' W 071°19'0 0.0
2014-Jul-17 00:22N 41°29' W 071°19'0 0.0
2014-Jul-16 23:31N 41°29' W 071°19'0 0.1
2014-Jul-16 22:29N 41°29' W 071°19'3 3.1
2014-Jul-16 21:23N 41°27' W 071°16'  

Dump ship's entire track history